Time;durP1;ratioP1;P1;durP2;ratioP2;P2;SDS_P1;SDS_P2;PMS_P1;PMS_P2;Temp;Humidity;BMP_temperature;BMP_pressure;BME280_temperature;BME280_humidity;BME280_pressure;Samples;Min_cycle;Max_cycle;Signal;HPM_P1;HPM_P2
2022/04/21 00:03:18;;;;;;;1.92;1.48;;;13.70;41.30;;;11.52;45.80;100997.53;8264252;28;20117;-78
2022/04/21 00:07:22;;;;;;;2.05;1.58;;;13.70;41.50;;;10.90;45.18;100896.38;8263625;28;20121;-78
2022/04/21 00:11:23;;;;;;;3.30;1.80;;;13.70;41.60;;;11.56;45.34;101010.44;8264286;28;20137;-78
2022/04/21 00:15:27;;;;;;;1.60;1.50;;;13.50;41.50;;;11.57;45.81;101014.75;8245816;28;20590;-78
2022/04/21 00:19:28;;;;;;;2.35;1.70;;;13.50;41.60;;;11.39;45.36;100993.88;8263692;28;20113;-78
2022/04/21 00:23:30;;;;;;;3.35;1.95;;;13.50;41.60;;;11.35;45.74;100978.47;8263414;28;20117;-78
2022/04/21 00:27:44;;;;;;;3.08;1.35;;;13.60;41.70;;;11.41;45.82;100992.03;8263824;28;20117;-78
2022/04/21 00:31:46;;;;;;;1.40;1.30;;;13.60;41.90;;;11.19;45.88;100960.16;8262235;28;20122;-78
2022/04/21 00:35:48;;;;;;;2.40;1.60;;;13.60;41.70;;;11.38;45.68;100984.38;8262694;28;20117;-78
2022/04/21 00:39:50;;;;;;;4.45;1.83;;;13.60;41.80;;;11.22;45.93;100960.00;8262565;28;20030;-78
2022/04/21 00:43:51;;;;;;;2.67;1.35;;;13.60;41.90;;;10.87;46.24;100923.53;8262493;28;20157;-78
2022/04/21 00:47:56;;;;;;;2.38;1.50;;;13.40;41.80;;;11.21;45.99;100974.00;8260903;28;20110;-78
2022/04/21 00:52:00;;;;;;;2.53;1.60;;;13.50;42.00;;;11.29;46.23;100982.28;8245350;28;20141;-78
2022/04/21 00:56:01;;;;;;;3.28;1.85;;;13.40;42.00;;;11.38;46.28;100999.22;8261965;28;20113;-78
2022/04/21 01:00:06;;;;;;;1.50;1.30;;;13.50;42.20;;;11.37;46.56;100994.91;8261530;28;20494;-78
2022/04/21 01:04:08;;;;;;;3.33;1.67;;;13.50;42.20;;;11.37;45.88;100993.16;8255602;28;20121;-78
2022/04/21 01:08:10;;;;;;;2.58;1.70;;;13.40;42.10;;;11.29;46.48;100969.19;8262720;28;20466;-77
2022/04/21 01:12:13;;;;;;;2.35;1.60;;;13.30;42.50;;;10.96;46.42;100920.41;8258671;28;20034;-78
2022/04/21 01:16:15;;;;;;;1.83;1.55;;;13.40;42.20;;;11.36;46.53;100985.38;8261775;28;20117;-78
2022/04/21 01:20:19;;;;;;;2.78;1.80;;;13.50;42.50;;;10.92;46.51;100905.84;8244364;28;20479;-77
2022/04/21 01:24:21;;;;;;;2.83;1.52;;;13.30;42.40;;;11.30;46.47;100973.50;8261740;28;20690;-78
2022/04/21 01:28:25;;;;;;;3.45;1.60;;;13.50;42.40;;;11.39;47.02;100985.22;8261981;28;20566;-78
2022/04/21 01:32:27;;;;;;;2.72;1.48;;;13.40;42.30;;;11.35;46.48;100992.38;8246302;28;20157;-77
2022/04/21 01:36:28;;;;;;;2.28;1.95;;;13.50;42.40;;;11.21;46.26;100972.22;8258606;28;20137;-78
2022/04/21 01:44:50;;;;;;;2.15;1.80;;;13.40;42.50;;;11.08;46.91;100947.66;8263188;28;20040;-78
2022/04/21 01:48:52;;;;;;;3.38;1.73;;;13.50;42.60;;;11.28;46.74;100991.84;8267780;28;20543;-78
2022/04/21 01:52:58;;;;;;;3.72;1.55;;;13.50;42.60;;;11.04;46.66;100952.22;8266258;28;20133;-78
2022/04/21 01:56:59;;;;;;;4.00;2.03;;;13.30;42.60;;;11.23;46.59;100985.19;8265189;28;20125;-78
2022/04/21 02:01:01;;;;;;;2.90;1.58;;;13.40;42.60;;;11.23;46.88;100977.34;8266013;28;20026;-78
2022/04/21 02:05:03;;;;;;;5.82;1.77;;;13.40;42.70;;;11.24;47.11;100963.38;8268323;28;20117;-78
2022/04/21 02:09:05;;;;;;;4.03;1.75;;;13.40;42.80;;;11.12;47.34;100945.72;8264275;28;20109;-78
2022/04/21 02:13:07;;;;;;;1.70;1.42;;;13.40;42.70;;;11.08;46.96;100943.28;8266542;28;20593;-78
2022/04/21 02:17:09;;;;;;;3.60;2.30;;;13.40;42.80;;;11.07;46.93;100952.06;8266755;28;20034;-77
2022/04/21 02:21:11;;;;;;;2.92;2.30;;;13.40;42.80;;;11.14;46.69;100951.72;8250778;28;20145;-78
2022/04/21 02:25:15;;;;;;;4.30;1.67;;;13.20;42.70;;;10.94;46.74;100911.81;8266316;28;20030;-78
2022/04/21 02:29:17;;;;;;;2.38;1.85;;;13.30;42.90;;;10.97;47.55;100923.88;8266472;28;20130;-78
2022/04/21 02:33:20;;;;;;;3.15;1.90;;;13.20;42.80;;;10.84;47.62;100898.41;8265966;28;20037;-78
2022/04/21 02:37:23;;;;;;;3.78;1.75;;;13.30;42.90;;;10.97;47.01;100924.72;8267239;28;20068;-78
2022/04/21 02:41:26;;;;;;;2.42;1.55;;;13.20;43.00;;;10.96;47.23;100936.09;8266180;28;20032;-78
2022/04/21 02:45:28;;;;;;;3.40;1.60;;;13.00;42.90;;;10.78;46.97;100903.97;8265873;28;20117;-78
2022/04/21 02:49:30;;;;;;;3.25;1.70;;;13.20;43.10;;;10.88;47.54;100938.25;8264127;28;20034;-78
2022/04/21 02:57:53;;;;;;;3.60;2.42;;;13.10;43.20;;;10.80;47.53;100936.06;8264776;28;20141;-78
2022/04/21 03:01:55;;;;;;;4.40;1.90;;;13.00;43.30;;;10.76;47.68;100929.31;8266019;28;20068;-78
2022/04/21 03:05:57;;;;;;;2.30;1.52;;;13.10;43.30;;;10.60;47.15;100905.75;8247628;28;20126;-78
2022/04/21 03:09:59;;;;;;;2.63;1.58;;;13.10;43.40;;;10.44;47.24;100864.88;8263997;28;20129;-78
2022/04/21 03:14:00;;;;;;;3.83;1.63;;;13.00;43.30;;;10.76;47.25;100936.31;8263526;28;20121;-78
2022/04/21 03:18:02;;;;;;;3.58;1.95;;;12.80;43.20;;;10.67;47.63;100921.97;8263934;28;20047;-78
2022/04/21 03:26:24;;;;;;;3.00;1.60;;;12.90;43.60;;;10.54;48.10;100906.09;8265328;28;20109;-78
2022/04/21 03:30:26;;;;;;;1.92;1.45;;;12.90;43.70;;;10.23;47.91;100859.81;8263907;28;20467;-78
2022/04/21 03:34:28;;;;;;;2.45;1.88;;;12.80;43.70;;;10.66;47.55;100935.94;8264949;28;20121;-78
2022/04/21 03:38:29;;;;;;;1.90;1.63;;;12.90;43.70;;;10.69;48.02;100941.00;8264624;28;20125;-78
2022/04/21 03:42:31;;;;;;;3.22;1.75;;;12.90;43.80;;;10.67;47.57;100942.03;8264633;28;20034;-78
2022/04/21 03:46:34;;;;;;;2.33;1.85;;;12.90;43.90;;;10.58;48.10;100932.88;8264344;28;20120;-78
2022/04/21 03:50:35;;;;;;;2.67;1.63;;;12.90;44.10;;;10.47;48.44;100920.38;8263601;28;20125;-78
2022/04/21 03:54:39;;;;;;;2.40;1.50;;;12.90;44.10;;;10.63;48.16;100947.38;8264027;28;20068;-78
2022/04/21 03:58:40;;;;;;;2.55;1.67;;;12.60;44.20;;;10.62;48.14;100957.94;8262644;28;20117;-78
2022/04/21 04:02:42;;;;;;;4.53;1.90;;;12.90;44.30;;;10.55;48.23;100956.53;8262533;28;20422;-78
2022/04/21 04:11:04;;;;;;;2.55;1.60;;;12.80;44.30;;;10.45;48.30;100952.72;8254485;28;20117;-78
2022/04/21 04:15:08;;;;;;;1.63;1.52;;;12.60;44.30;;;10.35;47.92;100936.69;8261924;28;20030;-79
2022/04/21 04:19:10;;;;;;;4.68;1.70;;;12.80;44.50;;;10.13;48.12;100889.94;8261621;28;20109;-78
2022/04/21 04:23:17;;;;;;;2.72;1.95;;;12.80;44.60;;;10.56;48.69;100966.09;8262070;28;20038;-78
2022/04/21 04:27:19;;;;;;;2.20;1.85;;;12.80;44.70;;;10.44;48.38;100944.03;8262434;28;20113;-78
2022/04/21 04:31:20;;;;;;;2.38;1.70;;;12.80;44.60;;;10.31;48.80;100930.75;8263725;28;20133;-78
2022/04/21 04:35:24;;;;;;;4.03;1.85;;;12.70;44.70;;;10.52;48.42;100975.81;8261694;28;20128;-78
2022/04/21 04:39:26;;;;;;;1.70;1.45;;;12.70;44.80;;;10.09;48.39;100898.81;8262703;28;20034;-78
2022/04/21 04:43:28;;;;;;;2.67;1.67;;;12.70;44.90;;;10.33;48.89;100941.97;8262302;28;20109;-79
2022/04/21 04:47:30;;;;;;;3.33;2.22;;;12.80;45.00;;;10.47;48.23;100971.75;8260287;28;20121;-79
2022/04/21 04:51:33;;;;;;;2.30;1.83;;;12.60;45.00;;;9.99;48.61;100885.41;8256761;28;20507;-79
2022/04/21 04:55:35;;;;;;;3.80;1.65;;;12.70;45.20;;;10.49;48.92;100975.97;8260775;28;20052;-79
2022/04/21 04:59:36;;;;;;;4.18;2.58;;;12.70;45.30;;;10.27;48.78;100941.44;8261992;28;20038;-79
2022/04/21 05:03:39;;;;;;;6.32;2.28;;;12.70;45.20;;;10.35;49.39;100957.56;8259872;28;20041;-79
2022/04/21 05:07:41;;;;;;;2.35;1.63;;;12.50;45.40;;;10.29;48.47;100948.28;8258543;28;20045;-79
2022/04/21 05:11:50;;;;;;;3.03;1.52;;;12.60;45.40;;;10.55;48.96;100985.28;8260326;28;20044;-79
2022/04/21 05:15:52;;;;;;;3.63;1.77;;;12.80;45.80;;;10.26;48.99;100930.16;8258391;28;20455;-79
2022/04/21 05:19:54;;;;;;;1.95;1.77;;;13.00;45.80;;;10.61;49.65;100985.81;8261360;28;20145;-79
2022/04/21 05:23:58;;;;;;;3.70;2.20;;;12.80;45.80;;;10.60;49.04;100981.50;8266235;28;20060;-79
2022/04/21 05:28:00;;;;;;;5.57;2.85;;;12.80;45.80;;;10.48;49.04;100956.03;8265841;28;20109;-79
2022/04/21 05:32:04;;;;;;;2.50;1.58;;;12.90;45.70;;;10.50;49.20;100959.38;8265496;28;20551;-79
2022/04/21 05:36:06;;;;;;;4.38;1.98;;;12.90;45.90;;;10.54;49.10;100966.16;8269216;28;20109;-79
2022/04/21 05:40:10;;;;;;;3.13;1.83;;;12.90;45.80;;;10.50;49.54;100958.53;8266079;28;20125;-78
2022/04/21 05:44:12;;;;;;;3.00;1.88;;;13.00;45.80;;;10.43;49.21;100934.53;8265066;28;20041;-79
2022/04/21 05:48:17;;;;;;;4.28;1.88;;;12.90;45.80;;;10.63;49.33;100959.59;8265184;28;20121;-79
2022/04/21 05:52:23;;;;;;;4.88;2.03;;;12.60;45.90;;;10.81;49.68;100979.56;8264264;28;20125;-78
2022/04/21 05:56:25;;;;;;;2.70;1.88;;;13.00;46.00;;;10.43;49.79;100925.88;8264707;28;20414;-78
2022/04/21 06:00:27;;;;;;;2.38;1.73;;;13.00;45.80;;;10.51;49.26;100945.44;8279640;28;20137;-78
2022/04/21 06:04:29;;;;;;;3.97;1.73;;;13.00;45.70;;;10.77;49.07;100980.63;8264172;28;20397;-79
2022/04/21 06:08:30;;;;;;;1.70;1.58;;;13.00;45.90;;;10.78;49.19;100978.88;8260919;28;20406;-78
2022/04/21 06:12:34;;;;;;;3.08;2.03;;;12.90;45.80;;;10.50;49.33;100930.66;8267336;28;20117;-79
2022/04/21 06:16:36;;;;;;;2.40;1.63;;;13.00;45.80;;;10.76;49.43;100971.09;8263116;28;20125;-78
2022/04/21 06:20:37;;;;;;;5.32;1.98;;;13.00;45.80;;;10.54;49.64;100937.44;8263711;28;20153;-79
2022/04/21 06:24:39;;;;;;;3.83;2.20;;;12.90;45.90;;;10.54;50.00;100929.59;8264271;28;20316;-78
2022/04/21 06:28:41;;;;;;;3.22;1.73;;;12.70;46.10;;;10.80;49.85;100967.44;8263950;28;20570;-78
2022/04/21 06:32:43;;;;;;;3.25;1.85;;;12.90;46.20;;;10.85;49.71;100969.78;8251644;28;20062;-79
2022/04/21 06:36:45;;;;;;;5.43;2.17;;;13.00;46.30;;;10.47;49.96;100904.72;8261192;28;20148;-78
2022/04/21 06:40:46;;;;;;;3.10;1.45;;;13.00;46.40;;;10.65;50.12;100922.97;8261097;28;20510;-79
2022/04/21 06:49:08;;;;;;;3.78;1.98;;;13.00;46.30;;;10.92;49.75;100955.47;8262019;28;20046;-78
2022/04/21 06:53:10;;;;;;;3.38;1.85;;;13.10;46.30;;;11.05;49.79;100974.81;8263056;28;20507;-79
2022/04/21 06:57:12;;;;;;;2.13;1.92;;;13.20;46.50;;;10.96;49.94;100953.53;8255858;28;20488;-79
2022/04/21 07:01:13;;;;;;;4.07;2.30;;;13.20;46.40;;;11.12;49.65;100980.53;8260364;28;20034;-78
2022/04/21 07:05:15;;;;;;;3.47;2.05;;;12.90;46.40;;;11.08;50.07;100981.63;8260561;28;20044;-78
2022/04/21 07:09:16;;;;;;;3.00;1.83;;;13.20;46.50;;;11.01;50.05;100968.03;8260131;28;20032;-80
2022/04/21 07:13:21;;;;;;;3.50;1.98;;;13.30;46.70;;;11.16;50.23;100986.47;8261244;28;20038;-80
2022/04/21 07:17:22;;;;;;;2.63;1.90;;;13.30;46.70;;;11.12;50.38;100984.94;8260888;28;20041;-80
2022/04/21 07:21:27;;;;;;;2.42;2.08;;;13.10;46.70;;;11.22;50.08;100994.81;8260956;28;20046;-80
2022/04/21 07:25:29;;;;;;;2.20;1.80;;;13.40;47.00;;;11.05;50.23;100966.13;8259949;28;20026;-80
2022/04/21 07:29:30;;;;;;;3.50;2.15;;;13.40;46.80;;;11.15;50.71;100967.34;8260208;28;20133;-78
2022/04/21 07:33:32;;;;;;;3.35;2.17;;;13.30;46.60;;;11.37;50.06;101014.06;8258325;28;20664;-78
2022/04/21 07:37:36;;;;;;;4.85;1.83;;;13.50;46.70;;;11.43;49.70;101002.44;8257691;28;20038;-79
2022/04/21 07:41:38;;;;;;;3.20;2.15;;;13.50;46.60;;;11.47;50.15;101011.78;8259058;28;20418;-78
2022/04/21 07:45:41;;;;;;;5.15;1.98;;;13.40;46.70;;;11.48;50.18;101003.03;8253930;28;20121;-79
2022/04/21 07:49:46;;;;;;;3.00;1.50;;;13.60;46.90;;;11.52;50.26;101010.59;8257614;28;20538;-78
2022/04/21 07:53:50;;;;;;;3.20;2.05;;;13.60;47.00;;;11.50;50.22;101007.25;8261637;28;20109;-78
2022/04/21 07:57:55;;;;;;;2.78;1.80;;;13.60;47.20;;;11.44;50.49;100993.66;8243595;28;20137;-79
2022/04/21 08:01:56;;;;;;;3.88;2.15;;;13.70;47.40;;;11.62;50.66;101010.13;8260894;28;20052;-81
2022/04/21 08:05:58;;;;;;;3.83;1.80;;;13.70;47.30;;;11.72;50.45;101022.59;8258824;28;20111;-81
2022/04/21 08:09:59;;;;;;;3.25;1.73;;;13.70;47.30;;;11.77;50.44;101019.72;8267090;28;20030;-80
2022/04/21 08:14:02;;;;;;;5.22;2.53;;;13.90;47.30;;;11.76;50.58;101020.66;8260792;28;20124;-81
2022/04/21 08:18:07;;;;;;;5.38;2.75;;;13.80;47.40;;;11.58;50.79;100998.97;8259539;28;20049;-78
2022/04/21 08:22:09;;;;;;;4.20;2.33;;;13.90;47.60;;;11.68;50.38;101022.84;8260807;28;20044;-78
2022/04/21 08:34:51;;;;;;;2.13;1.80;;;13.70;48.00;;;11.72;50.71;101027.00;8258122;28;20034;-79
2022/04/21 08:38:53;;;;;;;2.97;2.08;;;13.90;48.30;;;11.77;51.28;101032.78;8260006;28;20038;-79
2022/04/21 08:42:56;;;;;;;4.82;2.13;;;13.90;48.30;;;11.77;51.15;101038.03;8260781;28;20034;-79
2022/04/21 08:46:59;;;;;;;3.20;2.30;;;13.90;48.50;;;11.61;51.47;101006.66;8257810;28;20153;-81
2022/04/21 08:51:02;;;;;;;4.50;2.63;;;13.90;48.70;;;11.60;50.92;100994.50;8252878;28;20071;-79
2022/04/21 08:55:04;;;;;;;3.58;2.40;;;14.00;48.70;;;11.67;51.38;101014.16;8236198;28;20745;-79
2022/04/21 08:59:05;;;;;;;4.40;2.55;;;13.90;48.70;;;11.42;51.28;100965.00;8244946;28;20037;-79
2022/04/21 09:03:09;;;;;;;3.90;1.83;;;13.70;48.70;;;11.84;51.82;101023.69;8251363;28;20104;-78
2022/04/21 09:07:20;;;;;;;4.22;2.33;;;13.90;49.10;;;11.76;51.57;100999.72;8252420;28;20045;-78
2022/04/21 09:11:21;;;;;;;3.40;2.75;;;13.80;49.50;;;11.81;51.83;101002.94;8245143;28;20045;-80
2022/04/21 09:15:31;;;;;;;3.72;2.78;;;14.00;49.50;;;12.01;52.02;101024.56;8251015;28;20030;-85
2022/04/21 09:19:32;;;;;;;4.40;2.72;;;14.00;49.20;;;11.66;51.70;100951.47;8250611;28;20052;-82
2022/04/21 09:23:34;;;;;;;3.30;3.00;;;14.10;49.30;;;11.75;51.52;100966.66;8252324;28;20030;-83
2022/04/21 09:27:44;;;;;;;4.70;2.80;;;14.20;49.30;;;12.10;52.24;101018.81;8252328;28;20034;-79
2022/04/21 09:31:45;;;;;;;5.13;2.80;;;14.20;49.50;;;12.26;51.77;101037.94;8253228;28;20042;-79
2022/04/21 09:35:46;;;;;;;4.25;3.53;;;14.30;49.10;;;12.21;51.95;101018.19;8252558;28;20053;-78
2022/04/21 09:39:52;;;;;;;7.80;4.53;;;14.30;49.00;;;11.93;52.33;100978.72;8238690;28;20038;-79
2022/04/21 09:46:07;;;;;;;5.03;3.95;;;14.30;49.00;;;12.20;52.41;101027.81;8250212;28;20046;-81
2022/04/21 09:48:31;;;;;;;4.72;3.95;;;14.40;49.20;;;11.91;52.38;100985.00;8252181;28;20044;-82
2022/04/21 09:52:35;;;;;;;4.57;3.63;;;14.20;48.80;;;12.24;51.69;101042.41;8253270;28;20048;-82
2022/04/21 09:56:41;;;;;;;4.40;2.75;;;14.30;48.70;;;12.13;51.89;101016.00;8241453;28;20097;-82
2022/04/21 10:00:44;;;;;;;3.90;3.15;;;14.20;49.00;;;12.35;51.77;101042.66;8242642;28;20047;-81
2022/04/21 10:04:47;;;;;;;3.47;3.17;;;14.40;48.80;;;12.22;52.22;101017.25;8214578;28;20116;-81
2022/04/21 10:08:50;;;;;;;3.80;3.08;;;14.20;49.00;;;12.46;52.17;101049.06;8236953;28;20039;-80
2022/04/21 10:12:57;;;;;;;6.40;3.47;;;14.50;49.20;;;12.36;52.33;101022.53;8245272;28;20053;-80
2022/04/21 10:16:58;;;;;;;3.42;2.63;;;14.50;49.20;;;12.57;52.10;101042.25;8239435;28;20033;-81
2022/04/21 10:21:00;;;;;;;3.70;2.95;;;14.30;48.90;;;12.51;51.94;101029.50;8238193;28;20049;-82
2022/04/21 10:25:03;;;;;;;4.72;3.40;;;14.60;49.00;;;12.46;51.69;101009.75;8241983;28;20046;-81
2022/04/21 10:29:23;;;;;;;3.92;3.10;;;14.70;48.90;;;12.69;52.50;101035.47;8236954;28;20719;-81
2022/04/21 10:33:54;;;;;;;4.40;3.08;;;14.80;49.30;;;12.69;52.10;101024.09;8243007;28;20046;-81
2022/04/21 10:38:13;;;;;;;3.35;2.75;;;14.80;48.90;;;12.80;52.24;101047.94;8238866;28;20045;-80
2022/04/21 10:42:19;;;;;;;4.95;3.47;;;14.80;49.10;;;12.74;52.12;101038.63;8239507;28;20052;-83
2022/04/21 10:46:22;;;;;;;;;;;14.90;49.00;;;12.92;51.62;101041.09;8233363;28;20052;-81
2022/04/21 10:59:04;;;;;;;3.33;2.90;;;14.90;49.10;;;13.05;51.99;101047.28;8237199;28;20046;-81
2022/04/21 11:03:10;;;;;;;5.07;3.10;;;15.10;48.90;;;13.00;52.08;101018.72;8228311;28;20046;-81
2022/04/21 11:07:13;;;;;;;5.22;3.05;;;15.20;49.40;;;13.08;52.10;101015.63;8221418;28;20051;-81
2022/04/21 11:11:47;;;;;;;3.08;2.75;;;15.20;49.00;;;13.23;52.20;101025.19;8226701;28;20041;-81
2022/04/21 11:15:50;;;;;;;5.22;2.95;;;15.20;49.00;;;12.94;52.05;100971.91;8240392;28;20519;-82
2022/04/21 11:19:53;;;;;;;3.90;3.50;;;15.30;48.90;;;13.38;52.05;101028.66;8226552;28;20042;-80
2022/04/21 11:23:54;;;;;;;3.35;2.63;;;15.40;49.10;;;13.52;52.14;101040.09;8227505;28;20052;-79
2022/04/21 11:27:56;;;;;;;3.95;3.13;;;15.50;48.80;;;13.58;51.88;101032.66;8231068;28;20042;-79
2022/04/21 11:31:59;;;;;;;4.57;3.25;;;15.50;48.70;;;13.62;51.80;101031.53;8223631;28;20508;-79
2022/04/21 11:36:07;;;;;;;2.88;2.63;;;15.70;48.60;;;13.54;52.10;101014.59;8225134;28;20612;-79
2022/04/21 11:40:23;;;;;;;3.20;2.78;;;15.60;48.60;;;13.20;52.26;100956.34;8223575;28;20483;-79
2022/04/21 11:44:27;;;;;;;4.28;3.05;;;15.70;49.00;;;13.55;52.01;101005.78;8228829;28;20042;-80
2022/04/21 11:48:39;;;;;;;2.85;2.65;;;15.70;48.50;;;13.70;51.93;101036.31;8238027;28;20030;-80
2022/04/21 11:52:42;;;;;;;3.78;2.60;;;15.70;48.40;;;13.66;51.90;101024.31;8247546;28;20048;-80
2022/04/21 11:56:50;;;;;;;3.45;2.78;;;15.70;48.30;;;13.42;52.10;100979.47;8229080;28;20451;-79
2022/04/21 12:09:42;;;;;;;5.63;3.03;;;15.80;48.40;;;13.82;52.09;101032.06;8230315;28;20271;-79
2022/04/21 12:13:46;;;;;;;2.72;2.25;;;15.90;48.30;;;13.66;51.96;101012.06;8231207;28;20041;-79
2022/04/21 12:17:50;;;;;;;2.75;2.42;;;15.90;48.30;;;13.66;51.96;101001.56;8224511;28;20039;-78
2022/04/21 12:22:02;;;;;;;3.05;2.22;;;15.90;48.30;;;13.91;52.08;101031.47;8236291;28;20053;-78
2022/04/21 12:26:07;;;;;;;2.88;2.58;;;15.90;48.40;;;13.75;51.80;101013.25;8229911;28;20133;-79
2022/04/21 12:30:11;;;;;;;2.90;2.60;;;16.00;48.10;;;13.90;51.95;101033.25;8233538;28;20657;-80
2022/04/21 12:34:27;;;;;;;2.45;2.13;;;16.00;48.30;;;13.94;52.05;101036.53;8216490;28;20089;-79
2022/04/21 12:42:55;;;;;;;4.30;2.72;;;16.00;48.20;;;13.84;52.20;101031.00;8226978;28;20478;-78
2022/04/21 12:47:19;;;;;;;2.40;2.20;;;16.00;48.10;;;13.88;51.96;101031.66;8228947;28;20427;-80
2022/04/21 12:51:25;;;;;;;2.42;2.22;;;16.00;48.30;;;13.77;51.85;101005.25;8196371;28;20054;-78
2022/04/21 12:55:29;;;;;;;3.47;2.60;;;16.00;48.20;;;13.96;52.07;101026.78;8228594;28;20042;-79
2022/04/21 12:59:30;;;;;;;3.80;2.42;;;16.00;48.30;;;13.99;51.86;101029.22;8227967;28;20030;-77
2022/04/21 13:03:32;;;;;;;3.15;2.80;;;16.00;48.10;;;14.03;52.12;101033.31;8230349;28;20504;-78
2022/04/21 13:07:34;;;;;;;3.45;2.10;;;16.10;48.10;;;13.89;51.79;101009.72;8231484;28;20030;-78
2022/04/21 13:11:35;;;;;;;2.67;2.47;;;16.10;48.20;;;14.09;51.78;101029.44;8225526;28;20042;-78
2022/04/21 13:15:37;;;;;;;2.45;2.10;;;16.10;48.20;;;13.80;51.82;100981.44;8231487;28;20039;-78
2022/04/21 13:19:39;;;;;;;3.00;2.60;;;16.10;48.20;;;14.14;51.97;101030.81;8230216;28;20034;-78
2022/04/21 13:23:40;;;;;;;2.83;2.45;;;16.20;48.10;;;14.01;51.96;101000.19;8232193;28;20144;-80
2022/04/21 13:27:41;;;;;;;2.33;2.10;;;16.00;48.00;;;13.85;52.00;100966.22;8224620;28;20035;-78
2022/04/21 13:36:08;;;;;;;2.25;2.05;;;16.20;48.20;;;14.22;52.20;101019.81;8242527;28;20049;-78
2022/04/21 13:40:11;;;;;;;2.83;2.50;;;16.30;48.50;;;14.28;52.16;101018.56;8220720;28;20049;-79
2022/04/21 13:44:14;;;;;;;2.38;2.17;;;16.30;48.40;;;13.69;51.90;100929.63;8250506;28;20044;-78
2022/04/21 13:48:17;;;;;;;2.53;2.33;;;16.30;48.30;;;14.11;51.96;100996.03;8230343;28;20042;-78
2022/04/21 13:52:21;;;;;;;3.22;2.47;;;16.40;48.70;;;14.18;52.18;101010.47;8236743;28;20045;-78
2022/04/21 13:56:23;;;;;;;6.30;2.78;;;16.30;48.80;;;13.81;52.22;100955.09;8241676;28;20039;-79
2022/04/21 14:00:26;;;;;;;3.17;2.88;;;16.30;48.80;;;14.20;52.08;101031.34;8203666;28;20054;-79
2022/04/21 14:04:28;;;;;;;3.47;2.53;;;16.30;48.80;;;14.04;52.24;101006.13;8236572;28;20426;-79
2022/04/21 14:08:30;;;;;;;3.13;2.65;;;16.20;48.70;;;13.71;52.34;100962.72;8239854;28;20038;-79
2022/04/21 14:12:32;;;;;;;2.72;2.40;;;16.20;49.00;;;13.24;52.34;100881.78;8222565;28;20050;-79
2022/04/21 14:16:34;;;;;;;2.90;2.67;;;16.00;49.20;;;13.67;52.66;100937.63;8236934;28;20038;-79
2022/04/21 14:20:36;;;;;;;2.75;2.55;;;16.20;49.50;;;14.19;52.38;101019.19;8236821;28;20034;-79
2022/04/21 14:24:41;;;;;;;3.10;2.83;;;16.30;49.60;;;14.20;52.85;101016.44;8241723;28;20050;-79
2022/04/21 14:28:42;;;;;;;2.92;2.63;;;16.20;49.90;;;14.06;52.59;100991.09;8261253;28;20037;-79
2022/04/21 14:32:44;;;;;;;2.72;2.53;;;16.30;49.70;;;13.81;52.47;100938.50;8233004;28;20045;-79
2022/04/21 14:36:45;;;;;;;3.10;2.80;;;16.30;49.60;;;14.11;52.72;100996.03;8234194;28;20050;-79
2022/04/21 14:45:08;;;;;;;3.42;3.10;;;16.30;49.70;;;14.34;52.91;101024.28;8233937;28;20057;-79
2022/04/21 14:49:11;;;;;;;2.70;2.50;;;16.30;49.70;;;14.37;52.75;101026.69;8249219;28;20036;-79
2022/04/21 14:53:13;;;;;;;3.50;3.20;;;16.30;49.70;;;14.25;52.88;101013.50;8219907;28;20039;-78
2022/04/21 14:57:15;;;;;;;3.88;3.47;;;16.40;49.60;;;14.30;53.07;101028.03;8206771;28;20054;-78
2022/04/21 15:01:20;;;;;;;2.95;2.72;;;16.40;49.70;;;14.26;53.10;101026.56;8240305;28;20380;-78
2022/04/21 15:05:22;;;;;;;3.33;3.13;;;16.30;49.70;;;14.13;52.94;101008.13;8243837;28;20049;-78
2022/04/21 15:09:23;;;;;;;3.30;3.00;;;16.30;49.70;;;14.20;52.96;101023.47;8227507;28;21382;-78
2022/04/21 15:13:24;;;;;;;3.13;2.83;;;16.20;49.80;;;14.20;53.08;101026.09;8228958;28;20076;-78
2022/04/21 15:17:26;;;;;;;4.45;2.72;;;16.50;50.00;;;14.16;53.01;101023.69;8235269;28;20750;-78
2022/04/21 15:21:27;;;;;;;2.63;2.42;;;16.10;49.90;;;13.97;53.16;100993.47;8243275;28;20039;-78
2022/04/21 15:25:29;;;;;;;3.10;2.80;;;16.20;50.00;;;13.93;53.43;100984.94;8241688;28;20038;-78
2022/04/21 15:29:31;;;;;;;3.30;3.00;;;16.20;50.50;;;13.98;53.43;100995.16;8240211;28;20042;-78
2022/04/21 15:33:32;;;;;;;4.13;2.95;;;16.20;50.30;;;14.13;53.45;101015.16;8233767;28;20043;-78
2022/04/21 15:37:34;;;;;;;2.65;2.45;;;16.20;50.30;;;13.97;53.28;100985.59;8259854;28;20054;-79
2022/04/21 15:41:35;;;;;;;2.70;2.50;;;16.20;50.30;;;14.19;53.44;101019.19;8233017;28;20826;-79
2022/04/21 15:45:37;;;;;;;2.88;2.67;;;16.20;50.40;;;14.08;53.19;100997.09;8246169;28;20042;-79
2022/04/21 15:49:39;;;;;;;3.17;2.85;;;16.00;50.20;;;14.05;53.67;100978.91;8216108;28;20069;-79
2022/04/21 16:02:21;;;;;;;3.55;3.28;;;16.20;50.10;;;14.40;53.29;101002.00;8230292;28;20384;-79
2022/04/21 16:06:22;;;;;;;4.97;2.72;;;16.30;50.20;;;14.30;53.42;100979.91;8235669;28;20046;-79
2022/04/21 16:10:24;;;;;;;3.35;3.05;;;16.40;49.90;;;14.49;53.27;101005.78;8244018;28;20027;-79
2022/04/21 16:14:25;;;;;;;3.28;2.97;;;16.50;50.00;;;14.37;53.15;100971.50;8205464;28;20046;-79
2022/04/21 16:18:27;;;;;;;2.85;2.58;;;16.50;50.10;;;14.48;53.33;100978.69;8237357;28;20044;-79
2022/04/21 16:22:29;;;;;;;2.90;2.70;;;16.60;50.00;;;14.69;53.00;100996.56;8240300;28;20045;-79
2022/04/21 16:26:31;;;;;;;3.03;2.78;;;16.70;49.70;;;14.74;53.09;100999.72;8238128;28;20038;-79
2022/04/21 16:30:32;;;;;;;2.80;2.58;;;16.70;49.60;;;14.78;53.10;100993.34;8241357;28;20588;-79
2022/04/21 16:34:34;;;;;;;2.50;2.30;;;16.70;49.50;;;14.83;53.10;100994.69;8236791;28;20085;-79
2022/04/21 16:38:36;;;;;;;2.83;2.50;;;16.60;49.40;;;14.85;53.03;100984.06;8235422;28;20045;-79
2022/04/21 16:42:40;;;;;;;2.38;2.17;;;16.70;49.30;;;14.75;53.07;100956.75;8241642;28;20044;-79
2022/04/21 16:46:44;;;;;;;2.55;2.35;;;16.80;49.30;;;14.86;52.90;100967.34;8227331;28;20049;-79
2022/04/21 16:50:46;;;;;;;2.78;2.50;;;16.90;49.20;;;14.84;53.10;100961.34;8226574;28;20034;-79
2022/04/21 16:54:48;;;;;;;5.65;2.67;;;16.90;49.20;;;15.04;53.02;100983.63;8217065;28;20512;-79
2022/04/21 16:58:49;;;;;;;2.92;2.58;;;17.00;49.30;;;14.97;53.03;100962.19;8242238;28;20053;-79
2022/04/21 17:02:56;;;;;;;2.50;2.30;;;17.10;49.40;;;14.96;52.66;100950.00;8234076;28;20525;-79
2022/04/21 17:06:58;;;;;;;3.40;2.75;;;17.00;49.00;;;14.97;53.04;100943.78;8236665;28;20444;-79
2022/04/21 17:11:01;;;;;;;2.97;2.65;;;17.10;49.30;;;15.16;53.00;100974.06;8240954;28;20035;-79
2022/04/21 17:15:04;;;;;;;4.05;3.60;;;17.20;49.30;;;15.19;52.90;100976.47;8248366;28;20061;-79
2022/04/21 17:19:06;;;;;;;4.70;3.58;;;17.20;49.20;;;15.18;52.99;100975.63;8232579;28;20034;-80
2022/04/21 17:23:08;;;;;;;5.57;3.60;;;17.30;49.30;;;15.18;52.82;100973.00;8249384;28;20038;-79
2022/04/21 17:27:09;;;;;;;5.97;3.38;;;17.20;49.30;;;14.88;53.21;100928.66;8220658;28;20062;-79
2022/04/21 17:31:11;;;;;;;6.32;3.63;;;17.30;49.40;;;15.18;53.32;100974.78;8245419;28;20038;-80
2022/04/21 17:35:13;;;;;;;3.53;3.15;;;17.30;49.30;;;15.04;53.31;100955.56;8237500;28;20060;-80
2022/04/21 17:39:14;;;;;;;2.85;2.53;;;17.10;49.30;;;15.19;53.23;100986.97;8238597;28;20048;-81
2022/04/21 17:43:16;;;;;;;2.90;2.60;;;17.20;49.30;;;15.19;53.34;100992.25;8236479;28;20047;-80
2022/04/21 17:47:19;;;;;;;3.00;2.70;;;17.40;49.50;;;15.12;53.20;100980.47;8249700;28;20549;-80
2022/04/21 17:51:21;;;;;;;3.45;2.85;;;17.30;49.40;;;14.99;53.20;100965.56;8245893;28;20042;-78
2022/04/21 17:55:22;;;;;;;3.22;2.85;;;17.30;49.40;;;15.11;52.96;100982.25;8244090;28;20049;-80
2022/04/21 17:59:24;;;;;;;3.15;2.90;;;17.20;49.40;;;15.05;53.04;100983.53;8235032;28;20038;-80
2022/04/21 18:03:25;;;;;;;3.95;3.35;;;17.20;49.50;;;14.94;53.18;100961.56;8241884;28;20046;-80